Time;durP1;ratioP1;P1;durP2;ratioP2;P2;SDS_P1;SDS_P2;PMS_P1;PMS_P2;Temp;Humidity;BMP_temperature;BMP_pressure;BME280_temperature;BME280_humidity;BME280_pressure;Samples;Min_cycle;Max_cycle;Signal;HPM_P1;HPM_P2
2021/03/09 16:11:39;;;;;;;9.20;6.47;;;-2.80;69.00;;;;;;5093562;28;20862;-96
2021/03/09 16:14:04;;;;;;;13.70;7.50;;;-2.80;70.70;;;;;;5093163;28;20055;-95
2021/03/09 16:16:30;;;;;;;10.98;6.45;;;-2.80;71.90;;;;;;5084953;28;20021;-94
2021/03/09 16:18:59;;;;;;;12.55;7.35;;;-2.70;72.80;;;;;;5095858;28;20047;-94
2021/03/09 16:21:37;;;;;;;9.45;6.57;;;-2.60;73.70;;;;;;5087563;28;20025;-93
2021/03/09 16:24:04;;;;;;;9.70;5.88;;;-2.50;74.10;;;;;;5078380;28;20029;-95
2021/03/09 16:26:30;;;;;;;10.48;6.82;;;-2.40;74.00;;;;;;5095302;28;20020;-94
2021/03/09 16:28:56;;;;;;;11.48;6.60;;;-2.40;74.30;;;;;;5095559;28;20025;-95
2021/03/09 16:31:22;;;;;;;19.67;8.43;;;-2.30;74.50;;;;;;5079646;28;20481;-94
2021/03/09 16:33:47;;;;;;;23.13;11.20;;;-2.20;74.70;;;;;;5074362;28;20017;-94
2021/03/09 16:36:14;;;;;;;23.08;11.13;;;-2.20;74.10;;;;;;5073534;28;20092;-94
2021/03/09 16:38:40;;;;;;;19.83;11.20;;;-2.10;74.20;;;;;;5070679;28;20055;-93
2021/03/09 16:41:05;;;;;;;17.52;9.48;;;-2.10;74.40;;;;;;5094663;28;20032;-93
2021/03/09 16:43:31;;;;;;;15.20;8.77;;;-2.10;74.50;;;;;;5086194;28;20025;-95
2021/03/09 16:45:57;;;;;;;15.45;8.85;;;-2.00;74.40;;;;;;5086234;28;20024;-94
2021/03/09 16:48:23;;;;;;;23.63;11.35;;;-2.00;74.30;;;;;;5096718;28;20024;-93
2021/03/09 16:50:49;;;;;;;15.38;9.30;;;-2.00;74.30;;;;;;5099375;28;20099;-94
2021/03/09 16:53:15;;;;;;;15.18;9.48;;;-2.00;74.30;;;;;;5094930;28;20032;-95
2021/03/09 16:55:41;;;;;;;15.90;9.13;;;-2.00;74.30;;;;;;5072949;28;20113;-95
2021/03/09 16:58:07;;;;;;;20.92;11.07;;;-2.00;74.40;;;;;;5080549;28;20024;-95
2021/03/09 17:00:32;;;;;;;24.75;11.48;;;-2.00;74.10;;;;;;5074506;28;20112;-95
2021/03/09 17:02:58;;;;;;;29.23;12.80;;;-2.00;74.10;;;;;;5088597;28;20067;-93
2021/03/09 17:05:26;;;;;;;35.28;15.40;;;-2.10;73.80;;;;;;5077424;28;20079;-94
2021/03/09 17:07:51;;;;;;;42.55;18.05;;;-2.10;73.70;;;;;;5076588;28;20091;-95
2021/03/09 17:10:17;;;;;;;41.90;19.55;;;-2.20;73.80;;;;;;5076587;28;20378;-95
2021/03/09 17:12:43;;;;;;;47.33;22.30;;;-2.20;74.10;;;;;;5077171;28;20052;-95
2021/03/09 17:15:12;;;;;;;50.72;23.05;;;-2.20;74.10;;;;;;5092792;28;20384;-95
2021/03/09 17:17:38;;;;;;;33.83;17.23;;;-2.20;74.20;;;;;;5083713;28;20530;-95
2021/03/09 17:20:05;;;;;;;53.40;25.83;;;-2.30;74.30;;;;;;5080478;28;20020;-93
2021/03/09 17:22:31;;;;;;;49.88;23.70;;;-2.30;74.50;;;;;;5068949;28;20017;-94
2021/03/09 17:24:57;;;;;;;45.53;20.52;;;-2.30;74.80;;;;;;5056339;28;20028;-94
2021/03/09 17:27:26;;;;;;;36.22;18.58;;;-2.30;75.00;;;;;;5074351;28;20016;-94
2021/03/09 17:29:52;;;;;;;55.30;25.67;;;-2.30;75.10;;;;;;5062038;28;20036;-95
2021/03/09 17:32:18;;;;;;;48.15;23.08;;;-2.30;75.10;;;;;;5079560;28;20083;-96
2021/03/09 17:34:44;;;;;;;57.13;24.33;;;-2.30;75.20;;;;;;5063587;28;20021;-94
2021/03/09 17:37:10;;;;;;;37.80;16.15;;;-2.30;75.40;;;;;;5059594;28;20036;-94
2021/03/09 17:39:36;;;;;;;29.27;14.02;;;-2.30;75.40;;;;;;5061807;28;20035;-93
2021/03/09 17:42:02;;;;;;;61.00;29.65;;;-2.30;75.40;;;;;;5063786;28;21180;-94
2021/03/09 17:44:30;;;;;;;45.47;23.17;;;-2.30;75.40;;;;;;5060186;28;20425;-95
2021/03/09 17:46:56;;;;;;;39.92;20.83;;;-2.30;75.40;;;;;;5063718;28;20040;-95
2021/03/09 17:49:23;;;;;;;50.53;25.65;;;-2.30;75.60;;;;;;5059766;28;20033;-94
2021/03/09 17:51:51;;;;;;;56.75;29.85;;;-2.30;75.90;;;;;;5071611;28;20039;-93
2021/03/09 17:54:17;;;;;;;35.97;19.83;;;-2.30;75.90;;;;;;5078422;28;20025;-94
2021/03/09 17:56:43;;;;;;;31.30;17.20;;;-2.30;76.10;;;;;;5068608;28;20047;-92
2021/03/09 17:59:09;;;;;;;34.92;18.58;;;-2.30;76.10;;;;;;5073652;28;20017;-94
2021/03/09 18:01:36;;;;;;;29.42;17.45;;;-2.30;76.30;;;;;;5056523;28;20033;-93
2021/03/09 18:04:03;;;;;;;34.97;17.67;;;-2.30;76.50;;;;;;5057237;28;20036;-95
2021/03/09 18:06:29;;;;;;;45.83;19.92;;;-2.30;76.50;;;;;;5068197;28;20468;-91
2021/03/09 18:08:55;;;;;;;39.72;19.42;;;-2.30;76.60;;;;;;5063923;28;20025;-92
2021/03/09 18:11:21;;;;;;;42.35;18.05;;;-2.30;76.70;;;;;;5071380;28;20048;-94
2021/03/09 18:13:48;;;;;;;41.17;18.98;;;-2.30;77.00;;;;;;5056498;28;20112;-94
2021/03/09 18:16:14;;;;;;;40.45;19.20;;;-2.30;77.10;;;;;;5056565;28;20037;-93
2021/03/09 18:18:40;;;;;;;34.92;15.98;;;-2.20;77.10;;;;;;5069643;28;20426;-94
2021/03/09 18:21:06;;;;;;;29.50;14.02;;;-2.20;77.10;;;;;;5069528;28;20380;-95
2021/03/09 18:23:32;;;;;;;27.52;13.75;;;-2.10;77.20;;;;;;5076736;28;20415;-94
2021/03/09 18:25:57;;;;;;;28.90;14.00;;;-2.10;77.10;;;;;;5070433;28;20108;-95
2021/03/09 18:28:24;;;;;;;53.30;20.58;;;-2.10;77.20;;;;;;5055421;28;20377;-95
2021/03/09 18:30:51;;;;;;;59.08;20.27;;;-2.10;77.20;;;;;;5055772;28;20093;-95
2021/03/09 18:33:17;;;;;;;33.55;14.60;;;-2.10;77.30;;;;;;5058167;28;20029;-95
2021/03/09 18:35:43;;;;;;;46.10;15.57;;;-2.10;77.10;;;;;;5074634;28;20497;-94
2021/03/09 18:38:09;;;;;;;39.88;15.23;;;-2.10;77.20;;;;;;5076359;28;20031;-94
2021/03/09 18:40:35;;;;;;;37.78;17.55;;;-2.10;77.20;;;;;;5083733;28;20031;-93
2021/03/09 18:43:01;;;;;;;67.03;21.65;;;-2.00;77.20;;;;;;5071308;28;20112;-94
2021/03/09 18:45:26;;;;;;;96.10;28.27;;;-2.00;77.20;;;;;;5079155;28;20044;-96
2021/03/09 18:47:52;;;;;;;81.15;24.75;;;-2.00;77.20;;;;;;5084327;28;20115;-93
2021/03/09 18:50:19;;;;;;;50.65;18.38;;;-2.00;77.10;;;;;;5075808;28;20024;-94
2021/03/09 18:52:45;;;;;;;39.58;14.63;;;-2.00;77.20;;;;;;5075240;28;20399;-94
2021/03/09 18:55:12;;;;;;;38.42;14.90;;;-1.90;77.20;;;;;;5074959;28;20029;-94
2021/03/09 18:57:37;;;;;;;51.15;18.65;;;-2.00;77.20;;;;;;5074986;28;20070;-93
2021/03/09 19:00:04;;;;;;;58.50;17.92;;;-1.90;77.20;;;;;;5075017;28;20427;-94
2021/03/09 19:02:30;;;;;;;77.00;23.55;;;-2.00;77.20;;;;;;5065265;28;20568;-95
2021/03/09 19:04:57;;;;;;;75.25;24.90;;;-2.00;77.20;;;;;;5060415;28;20107;-95
2021/03/09 19:07:23;;;;;;;71.75;21.65;;;-2.00;77.10;;;;;;5061262;28;20107;-95
2021/03/09 19:09:51;;;;;;;76.97;23.42;;;-2.00;77.20;;;;;;5073905;28;20463;-94
2021/03/09 19:12:37;;;;;;;68.47;21.45;;;-2.00;77.20;;;;;;5067578;28;20036;-95
2021/03/09 19:15:30;;;;;;;40.88;15.05;;;-2.00;77.20;;;;;;5092371;28;20035;-94
2021/03/09 19:18:17;;;;;;;43.80;17.13;;;-2.00;77.20;;;;;;5069568;28;20032;-94
2021/03/09 19:20:43;;;;;;;25.25;12.93;;;-2.00;77.30;;;;;;5058244;28;20029;-94
2021/03/09 19:23:09;;;;;;;28.48;12.93;;;-2.00;77.30;;;;;;5068602;28;20111;-95
2021/03/09 19:25:35;;;;;;;26.58;10.98;;;-2.00;77.20;;;;;;5066462;28;20047;-94
2021/03/09 19:28:00;;;;;;;17.83;9.80;;;-2.00;77.10;;;;;;5078481;28;20058;-94
2021/03/09 19:30:26;;;;;;;15.48;8.75;;;-2.10;77.00;;;;;;5066140;28;20008;-94
2021/03/09 19:32:52;;;;;;;16.15;9.45;;;-2.10;77.10;;;;;;5063292;28;20068;-91
2021/03/09 19:35:17;;;;;;;16.67;10.10;;;-2.10;77.20;;;;;;5066487;28;20111;-94
2021/03/09 19:37:43;;;;;;;15.85;10.07;;;-2.20;77.30;;;;;;5059053;28;20044;-94
2021/03/09 19:40:10;;;;;;;19.23;11.43;;;-2.20;77.40;;;;;;5063624;28;20024;-95
2021/03/09 19:42:35;;;;;;;67.68;22.85;;;-2.30;77.40;;;;;;5074946;28;20020;-93
2021/03/09 19:45:02;;;;;;;84.50;26.95;;;-2.30;77.60;;;;;;5057822;28;20509;-94
2021/03/09 19:47:28;;;;;;;101.30;29.27;;;-2.20;77.70;;;;;;5068344;28;20019;-92
2021/03/09 19:49:54;;;;;;;91.60;27.83;;;-2.30;77.70;;;;;;5065168;28;20024;-91
2021/03/09 19:52:20;;;;;;;89.07;27.48;;;-2.30;77.80;;;;;;5067668;28;20031;-89
2021/03/09 19:54:46;;;;;;;115.68;38.67;;;-2.20;77.70;;;;;;5074021;28;20052;-92
2021/03/09 19:57:12;;;;;;;151.82;48.00;;;-2.30;77.60;;;;;;5076085;28;20028;-93
2021/03/09 19:59:41;;;;;;;173.20;48.88;;;-2.30;77.60;;;;;;5088822;28;20036;-86
2021/03/09 20:02:10;;;;;;;130.25;34.63;;;-2.30;77.70;;;;;;5079619;28;20028;-86
2021/03/09 20:04:37;;;;;;;112.30;29.65;;;-2.30;77.80;;;;;;5090674;28;20073;-86
2021/03/09 20:07:02;;;;;;;83.03;22.30;;;-2.30;77.70;;;;;;5089631;28;20488;-86
2021/03/09 20:09:28;;;;;;;58.97;18.65;;;-2.30;77.60;;;;;;5085788;28;20042;-92
2021/03/09 20:11:54;;;;;;;47.17;15.55;;;-2.30;77.50;;;;;;5071775;28;20021;-92
2021/03/09 20:14:19;;;;;;;36.58;13.93;;;-2.30;77.40;;;;;;5066798;28;20027;-91
2021/03/09 20:16:48;;;;;;;34.10;14.95;;;-2.30;77.40;;;;;;5079083;28;20473;-92
2021/03/09 20:19:14;;;;;;;32.97;15.50;;;-2.30;77.30;;;;;;5052383;28;20020;-91
2021/03/09 20:21:39;;;;;;;34.33;15.93;;;-2.40;77.20;;;;;;5057417;28;20043;-93
2021/03/09 20:24:06;;;;;;;31.73;14.93;;;-2.40;76.90;;;;;;5081159;28;20029;-96
2021/03/09 20:26:33;;;;;;;38.45;17.95;;;-2.50;76.90;;;;;;5048824;28;20366;-93
2021/03/09 20:28:59;;;;;;;53.30;20.60;;;-2.60;76.90;;;;;;5049124;28;20025;-94
2021/03/09 20:31:25;;;;;;;63.38;22.35;;;-2.70;76.90;;;;;;5050694;28;20024;-93
2021/03/09 20:33:51;;;;;;;64.57;22.85;;;-2.70;77.00;;;;;;5041992;28;20487;-93
2021/03/09 20:36:17;;;;;;;69.43;22.92;;;-2.80;77.20;;;;;;5052938;28;20025;-93
2021/03/09 20:38:43;;;;;;;60.60;21.70;;;-2.80;77.90;;;;;;5046156;28;20040;-95
2021/03/09 20:41:11;;;;;;;86.70;28.75;;;-2.80;77.50;;;;;;5042593;28;20021;-93
2021/03/09 20:43:37;;;;;;;69.40;24.65;;;-2.90;77.60;;;;;;5042768;28;20029;-94
2021/03/09 20:46:02;;;;;;;60.63;23.30;;;-2.80;77.70;;;;;;5041606;28;20385;-93
2021/03/09 20:48:28;;;;;;;56.58;22.42;;;-2.80;77.80;;;;;;5047723;28;20071;-94
2021/03/09 20:50:56;;;;;;;48.13;18.40;;;-2.80;77.80;;;;;;5051910;28;20027;-92
2021/03/09 20:53:22;;;;;;;36.15;16.80;;;-2.80;77.70;;;;;;5054647;28;20033;-91
2021/03/09 21:18:45;;;;;;;20.95;10.55;;;-3.70;72.80;;;;;;5012113;28;20871;-95
2021/03/09 21:21:10;;;;;;;23.65;11.10;;;-3.90;73.90;;;;;;5011237;28;20028;-95
2021/03/09 21:23:36;;;;;;;19.83;10.07;;;-3.90;75.20;;;;;;5011052;28;20441;-94
2021/03/09 21:26:02;;;;;;;17.80;10.48;;;-4.00;76.20;;;;;;5015048;28;20030;-95
2021/03/09 22:22:36;;;;;;;19.63;10.30;;;-6.50;73.30;;;;;;5100371;27;20374;-93
2021/03/09 22:25:03;;;;;;;22.80;11.38;;;-6.40;74.90;;;;;;5099875;28;20024;-93
2021/03/09 22:27:29;;;;;;;19.67;11.43;;;-6.50;76.40;;;;;;5099214;28;20468;-94
